< < Back
Terminal Aerodrome Forecast


Current Version              Previous Versions:   1  2  3  4  5  6  7  8  9  

Terminal Aerodrome Forecast

370
FTUS44 KBMX 272320
TAFBHM
TAF
KBHM 272320Z 2800/2824 27005KT P6SM BKN250=

Latest METAR

989
SAUS70 KWBC 280100 RRD
MTRBHM
METAR KBHM 280053Z 00000KT 8SM SCT150 26/24 A2998 RMK AO2 SLP141
T02560244


USA.gov is the U.S. government's official web portal to all federal, state and local government web resources and services.